[2024-11-29 00:00:00, 2024-11-29 23:59:59] previous next
| time | temperature | air pressure | humidity | solar radiation | wind speed |
|---|---|---|---|---|---|
| 2024-11-29 07:59:35 | -1.9 | 1023.5 | 99.0 | 7.6 | 0.0 |
| 2024-11-29 08:19:38 | -1.4 | 1023.5 | 99.0 | 11.9 | 0.0 |
| 2024-11-29 08:39:38 | 1.7 | 1023.9 | 99.0 | 17.9 | 1.3 |
| 2024-11-29 08:59:37 | 2.3 | 1023.9 | 99.0 | 22.0 | 0.8 |
| 2024-11-29 09:19:38 | 3.0 | 1023.9 | 99.0 | 23.5 | 1.1 |
| 2024-11-29 09:39:38 | 3.6 | 1023.9 | 99.0 | 25.4 | 1.0 |
| 2024-11-29 09:59:38 | 4.3 | 1023.9 | 99.0 | 27.5 | 0.3 |
| 2024-11-29 10:19:38 | 5.3 | 1023.5 | 99.0 | 29.2 | 0.0 |
| 2024-11-29 10:39:36 | 5.1 | 1023.5 | 96.0 | 30.6 | 0.7 |
| 2024-11-29 10:59:38 | 5.6 | 1023.5 | 92.0 | 32.5 | 0.0 |
| 2024-11-29 11:19:38 | 6.6 | 1023.2 | 86.0 | 101.1 | 1.7 |
| 2024-11-29 11:39:38 | 6.9 | 1022.8 | 86.0 | 152.4 | 0.7 |
| 2024-11-29 11:59:37 | 7.5 | 1022.8 | 82.0 | 192.4 | 0.0 |
| 2024-11-29 12:19:36 | 7.2 | 1022.5 | 83.0 | 167.2 | 0.0 |
| 2024-11-29 12:39:36 | 7.5 | 1022.5 | 83.0 | 203.5 | 0.7 |
| 2024-11-29 12:59:35 | 8.4 | 1022.5 | 80.0 | 189.1 | 0.4 |
| 2024-11-29 13:19:36 | 9.0 | 1022.2 | 77.0 | 171.1 | 2.0 |
| 2024-11-29 13:39:35 | 8.9 | 1022.2 | 78.0 | 172.9 | 2.0 |
| 2024-11-29 13:59:35 | 9.2 | 1021.8 | 76.0 | 150.7 | 0.8 |
| 2024-11-29 14:19:38 | 7.5 | 1021.8 | 83.0 | 71.8 | 1.3 |
| 2024-11-29 14:46:12 | 6.8 | 1021.5 | 86.0 | 50.3 | 0.0 |
CSV export: /station/IWELLEN5/data?period=20241129T000000/20241129T235959&format=csv&tz=GMT